createdAt,value
2023-04-27T00:01:18.938Z,99071.34
2023-04-27T00:03:46.829Z,99074.91
2023-04-27T00:06:14.564Z,99080.13
2023-04-27T00:08:42.273Z,99077.50
2023-04-27T00:11:09.961Z,99084.47
2023-04-27T00:13:37.465Z,99075.00
2023-04-27T00:16:05.427Z,99085.41
2023-04-27T00:18:33.096Z,99085.59
2023-04-27T00:21:01.144Z,99081.44
2023-04-27T00:23:28.872Z,99086.69
2023-04-27T00:25:56.584Z,99082.38
2023-04-27T00:28:24.109Z,99083.38
2023-04-27T00:30:54.667Z,99081.69
2023-04-27T00:33:22.203Z,99080.81
2023-04-27T00:35:49.830Z,99080.78
2023-04-27T00:38:17.522Z,99084.22
2023-04-27T00:40:45.149Z,99078.16
2023-04-27T00:43:12.942Z,99079.78
2023-04-27T00:45:43.590Z,99076.41
2023-04-27T00:48:12.488Z,99080.69
2023-04-27T00:50:41.980Z,99079.72
2023-04-27T00:53:09.653Z,99061.53
2023-04-27T00:55:37.171Z,99074.41
2023-04-27T00:58:04.872Z,99072.56
2023-04-27T01:00:32.757Z,99076.94
2023-04-27T01:03:02.791Z,99082.06
2023-04-27T01:05:32.486Z,99079.41
2023-04-27T01:08:00.481Z,99089.69
2023-04-27T01:10:28.678Z,99088.00
2023-04-27T01:12:56.474Z,99087.13
2023-04-27T01:15:24.183Z,99092.28
2023-04-27T01:18:01.514Z,99087.16
2023-04-27T01:20:32.821Z,99088.81
2023-04-27T01:23:00.437Z,99077.53
2023-04-27T01:25:27.987Z,99090.34
2023-04-27T01:27:55.577Z,99078.31
2023-04-27T01:30:23.383Z,99072.09
2023-04-27T01:32:51.140Z,99075.47
2023-04-27T01:35:20.507Z,99074.59
2023-04-27T01:37:48.178Z,99074.47
2023-04-27T01:40:18.644Z,99083.13
2023-04-27T01:42:48.210Z,99074.38
2023-04-27T01:45:16.213Z,99085.53
2023-04-27T01:47:44.080Z,99080.31
2023-04-27T01:50:12.616Z,99072.56
2023-04-27T01:52:40.725Z,99077.72
2023-04-27T01:55:10.197Z,99080.25
2023-04-27T01:57:38.536Z,99091.44
2023-04-27T02:00:07.011Z,99077.56
2023-04-27T02:02:57.597Z,99090.59
2023-04-27T02:05:25.483Z,99088.75
2023-04-27T02:07:54.660Z,99103.41
2023-04-27T02:10:23.974Z,99104.16
2023-04-27T02:12:57.582Z,99110.09
2023-04-27T02:15:26.063Z,99106.69
2023-04-27T02:17:53.785Z,99112.69
2023-04-27T02:20:21.528Z,99113.53
2023-04-27T02:22:49.192Z,99110.16
2023-04-27T02:25:17.092Z,99118.00
2023-04-27T02:27:44.916Z,99117.16
2023-04-27T02:30:14.949Z,99121.56
2023-04-27T02:32:42.931Z,99123.28
2023-04-27T02:35:11.146Z,99130.97
2023-04-27T02:37:38.768Z,99129.28
2023-04-27T02:40:10.376Z,99134.50
2023-04-27T02:42:39.087Z,99129.34
2023-04-27T02:45:08.374Z,99124.28
2023-04-27T02:47:37.922Z,99124.38
2023-04-27T02:50:06.083Z,99133.09
2023-04-27T02:52:35.843Z,99132.38
2023-04-27T02:55:04.061Z,99134.97
2023-04-27T02:57:33.988Z,99136.06
2023-04-27T03:00:03.606Z,99140.47
2023-04-27T03:02:32.855Z,99143.22
2023-04-27T03:05:03.956Z,99151.03
2023-04-27T03:07:32.265Z,99146.00
2023-04-27T03:09:59.855Z,99154.69
2023-04-27T03:12:31.720Z,99153.22
2023-04-27T03:15:01.213Z,99154.31
2023-04-27T03:17:32.197Z,99151.94
2023-04-27T03:19:59.837Z,99154.66
2023-04-27T03:22:27.724Z,99154.88
2023-04-27T03:24:55.270Z,99150.66
2023-04-27T03:27:23.238Z,99163.88
2023-04-27T03:29:54.322Z,99159.84
2023-04-27T03:32:22.285Z,99168.66
2023-04-27T03:34:49.903Z,99166.25
2023-04-27T03:37:18.445Z,99174.09
2023-04-27T03:39:46.087Z,99180.22
2023-04-27T03:42:14.015Z,99175.09
2023-04-27T03:44:41.746Z,99173.44
2023-04-27T03:47:09.909Z,99183.16
2023-04-27T03:49:39.781Z,99173.03
2023-04-27T03:52:08.712Z,99174.16
2023-04-27T03:54:39.960Z,99178.66
2023-04-27T03:57:07.837Z,99177.13
2023-04-27T03:59:36.778Z,99174.72
2023-04-27T04:02:05.874Z,99180.03
2023-04-27T04:04:33.761Z,99181.78
2023-04-27T04:07:01.863Z,99179.31
2023-04-27T04:09:29.764Z,99172.56
2023-04-27T04:11:57.989Z,99175.22
2023-04-27T04:14:25.728Z,99176.13
2023-04-27T04:16:53.254Z,99185.72
2023-04-27T04:19:22.275Z,99191.00
2023-04-27T04:21:50.061Z,99191.09
2023-04-27T04:24:19.073Z,99190.28
2023-04-27T04:26:47.326Z,99186.94
2023-04-27T04:29:15.512Z,99192.19
2023-04-27T04:31:43.693Z,99190.50
2023-04-27T04:34:11.494Z,99197.44
2023-04-27T04:36:38.969Z,99188.84
2023-04-27T04:39:07.220Z,99188.84
2023-04-27T04:41:34.855Z,99191.53
2023-04-27T04:44:03.288Z,99196.78
2023-04-27T04:46:31.108Z,99198.56
2023-04-27T04:48:58.852Z,99199.44
2023-04-27T04:51:26.575Z,99191.66
2023-04-27T04:53:54.139Z,99195.13
2023-04-27T04:56:24.035Z,99198.56
2023-04-27T04:58:52.049Z,99204.63
2023-04-27T05:01:19.667Z,99202.88
2023-04-27T05:03:49.523Z,99202.00
2023-04-27T05:06:17.170Z,99197.63
2023-04-27T05:08:44.639Z,99201.94
2023-04-27T05:11:12.146Z,99205.31
2023-04-27T05:13:40.478Z,99200.94
2023-04-27T05:16:08.880Z,99204.34
2023-04-27T05:18:36.589Z,99197.41
2023-04-27T05:21:04.079Z,99206.81
2023-04-27T05:23:31.665Z,99203.34
2023-04-27T05:25:59.205Z,99208.50
2023-04-27T05:28:27.229Z,99203.28
2023-04-27T05:30:55.176Z,99209.31
2023-04-27T05:33:23.644Z,99209.19
2023-04-27T05:35:52.482Z,99209.13
2023-04-27T05:38:19.932Z,99210.84
2023-04-27T05:40:47.619Z,99207.34
2023-04-27T05:43:15.584Z,99208.19
2023-04-27T05:45:43.408Z,99209.91
2023-04-27T05:48:11.054Z,99217.69
2023-04-27T05:50:38.755Z,99208.91
2023-04-27T05:53:07.244Z,99205.38
2023-04-27T05:55:34.807Z,99207.06
2023-04-27T05:58:08.231Z,99210.63
2023-04-27T06:00:37.258Z,99207.13
2023-04-27T06:03:05.372Z,99204.53
2023-04-27T06:05:34.609Z,99207.97
2023-04-27T06:08:02.414Z,99210.44
2023-04-27T06:10:30.131Z,99207.75
2023-04-27T06:13:00.917Z,99220.78
2023-04-27T06:15:28.845Z,99214.69
2023-04-27T06:17:56.924Z,99213.91
2023-04-27T06:20:24.691Z,99224.28
2023-04-27T06:22:52.701Z,99221.63
2023-04-27T06:25:20.290Z,99216.25
2023-04-27T06:27:49.499Z,99217.75
2023-04-27T06:30:17.888Z,99217.50
2023-04-27T06:32:46.205Z,99227.59
2023-04-27T06:35:13.988Z,99219.38
2023-04-27T06:37:42.003Z,99231.25
2023-04-27T06:40:09.950Z,99230.03
2023-04-27T06:42:37.982Z,99227.13
2023-04-27T06:45:07.381Z,99221.50
2023-04-27T06:47:35.213Z,99221.59
2023-04-27T06:50:04.173Z,99224.47
2023-04-27T06:52:33.826Z,99232.25
2023-04-27T06:55:01.632Z,99221.75
2023-04-27T06:57:32.791Z,99217.75
2023-04-27T07:00:00.754Z,99227.75
2023-04-27T07:02:28.535Z,99221.63
2023-04-27T07:04:56.247Z,99223.13
2023-04-27T07:07:24.089Z,99221.75
2023-04-27T07:09:51.960Z,99223.44
2023-04-27T07:12:19.540Z,99221.69
2023-04-27T07:14:47.161Z,99219.69
2023-04-27T07:17:14.723Z,99214.19
2023-04-27T07:19:42.499Z,99208.22
2023-04-27T07:22:10.348Z,99216.59
2023-04-27T07:24:37.993Z,99213.19
2023-04-27T07:27:05.575Z,99218.72
2023-04-27T07:29:33.792Z,99220.91
2023-04-27T07:32:02.335Z,99210.03
2023-04-27T07:34:41.180Z,99223.44
2023-04-27T07:37:17.636Z,99227.38
2023-04-27T07:39:45.105Z,99223.53
2023-04-27T07:42:12.739Z,99221.03
2023-04-27T07:44:41.063Z,99224.63
2023-04-27T07:47:09.109Z,99226.63
2023-04-27T07:49:38.446Z,99226.88
2023-04-27T07:52:06.263Z,99237.28
2023-04-27T07:54:35.132Z,99225.88
2023-04-27T07:57:09.116Z,99232.63
2023-04-27T07:59:37.211Z,99217.06
2023-04-27T08:02:18.573Z,99216.38
2023-04-27T08:04:48.956Z,99231.03
2023-04-27T08:07:18.004Z,99226.28
2023-04-27T08:09:45.954Z,99226.53
2023-04-27T08:12:13.898Z,99225.09
2023-04-27T08:14:41.479Z,99222.59
2023-04-27T08:17:09.297Z,99220.88
2023-04-27T08:19:37.260Z,99218.38
2023-04-27T08:22:05.227Z,99217.19
2023-04-27T08:24:33.079Z,99220.25
2023-04-27T08:27:01.077Z,99220.63
2023-04-27T08:29:29.340Z,99217.63
2023-04-27T08:32:00.121Z,99215.31
2023-04-27T08:34:29.211Z,99228.66
2023-04-27T08:36:57.349Z,99211.72
2023-04-27T08:39:25.621Z,99214.34
2023-04-27T08:41:53.570Z,99218.53
2023-04-27T08:44:21.290Z,99214.47
2023-04-27T08:46:49.724Z,99217.34
2023-04-27T08:49:17.931Z,99218.00
2023-04-27T08:51:45.662Z,99212.97
2023-04-27T08:54:13.333Z,99216.03
2023-04-27T08:56:41.055Z,99219.06
2023-04-27T08:59:16.295Z,99211.44
2023-04-27T09:01:46.534Z,99221.56
2023-04-27T09:04:14.592Z,99214.56
2023-04-27T09:06:42.474Z,99215.38
2023-04-27T09:09:11.512Z,99225.66
2023-04-27T09:11:39.832Z,99218.44
2023-04-27T09:14:21.038Z,99217.78
2023-04-27T09:16:59.464Z,99213.72
2023-04-27T09:19:29.399Z,99218.09
2023-04-27T09:22:07.676Z,99225.44
2023-04-27T09:24:35.869Z,99217.63
2023-04-27T09:27:05.236Z,99207.78
2023-04-27T09:29:38.111Z,99206.81
2023-04-27T09:32:20.898Z,99224.66
2023-04-27T09:34:48.637Z,99212.91
2023-04-27T09:37:16.764Z,99205.63
2023-04-27T09:39:46.348Z,99213.88
2023-04-27T09:42:14.015Z,99215.41
2023-04-27T09:44:41.629Z,99208.09
2023-04-27T09:47:10.892Z,99210.81
2023-04-27T09:49:39.014Z,99211.94
2023-04-27T09:52:06.771Z,99210.72
2023-04-27T09:54:35.912Z,99218.50
2023-04-27T09:57:46.870Z,99225.16
2023-04-27T10:00:23.638Z,99217.47
2023-04-27T10:03:00.082Z,99218.97
2023-04-27T10:05:41.138Z,99215.25
2023-04-27T10:08:10.475Z,99231.13
2023-04-27T10:10:48.756Z,99232.50
2023-04-27T10:13:24.893Z,99226.78
2023-04-27T10:15:53.731Z,99213.84
2023-04-27T10:18:31.288Z,99220.56
2023-04-27T10:21:10.678Z,99224.34
2023-04-27T10:23:48.572Z,99224.16
2023-04-27T10:26:26.737Z,99222.66
2023-04-27T10:29:01.208Z,99218.06
2023-04-27T10:31:30.114Z,99200.72
2023-04-27T10:34:11.422Z,99217.16
2023-04-27T10:36:41.093Z,99212.41
2023-04-27T10:39:25.561Z,99217.22
2023-04-27T10:42:01.209Z,99223.69
2023-04-27T10:44:31.369Z,99231.97
2023-04-27T10:47:01.659Z,99223.84
2023-04-27T10:49:30.769Z,99231.81
2023-04-27T10:51:59.849Z,99223.50
2023-04-27T10:54:29.215Z,99227.94
2023-04-27T10:57:10.985Z,99237.97
2023-04-27T10:59:52.439Z,99232.31
2023-04-27T11:02:28.268Z,99249.03
2023-04-27T11:04:56.749Z,99253.31
2023-04-27T11:07:29.271Z,99258.81
2023-04-27T11:09:57.058Z,99277.00
2023-04-27T11:12:24.864Z,99299.56
2023-04-27T11:14:58.669Z,99306.66
2023-04-27T11:17:30.741Z,99303.94
2023-04-27T11:19:58.358Z,99293.88
2023-04-27T11:22:26.039Z,99294.63
2023-04-27T11:24:53.825Z,99287.00
2023-04-27T11:27:23.503Z,99285.72
2023-04-27T11:29:51.185Z,99281.47
2023-04-27T11:32:23.423Z,99276.53
2023-04-27T11:34:54.669Z,99266.66
2023-04-27T11:37:25.687Z,99273.81
2023-04-27T11:40:00.074Z,99273.31
2023-04-27T11:42:29.021Z,99266.47
2023-04-27T11:45:11.126Z,99262.84
2023-04-27T11:47:41.094Z,99251.59
2023-04-27T11:50:09.460Z,99261.84
2023-04-27T11:52:40.331Z,99259.28
2023-04-27T11:55:10.826Z,99243.47
2023-04-27T11:57:38.980Z,99239.56
2023-04-27T12:00:11.484Z,99242.69
2023-04-27T12:02:44.735Z,99243.50
2023-04-27T12:05:15.556Z,99244.88
2023-04-27T12:07:43.623Z,99245.03
2023-04-27T12:10:11.920Z,99238.53
2023-04-27T12:12:39.648Z,99236.78
2023-04-27T12:15:08.684Z,99240.03
2023-04-27T12:17:39.217Z,99246.44
2023-04-27T12:20:07.445Z,99233.34
2023-04-27T12:22:36.342Z,99233.56
2023-04-27T12:25:05.386Z,99241.03
2023-04-27T12:27:34.507Z,99224.00
2023-04-27T12:30:02.228Z,99230.16
2023-04-27T12:32:33.019Z,99233.13
2023-04-27T12:35:00.786Z,99230.19
2023-04-27T12:37:31.621Z,99227.34
2023-04-27T12:39:59.253Z,99222.28
2023-04-27T12:42:26.968Z,99218.28
2023-04-27T12:44:54.746Z,99214.94
2023-04-27T12:47:43.110Z,99213.53
2023-04-27T12:50:10.247Z,99210.28
2023-04-27T12:52:37.890Z,99209.97
2023-04-27T12:55:06.491Z,99206.69
2023-04-27T12:57:34.505Z,99206.63
2023-04-27T13:00:02.451Z,99199.72
2023-04-27T13:02:34.118Z,99199.22
2023-04-27T13:05:02.172Z,99200.63
2023-04-27T13:07:31.254Z,99201.56
2023-04-27T13:09:58.843Z,99207.50
2023-04-27T13:12:26.840Z,99200.19
2023-04-27T13:14:54.520Z,99203.59
2023-04-27T13:17:22.253Z,99206.22
2023-04-27T13:19:49.776Z,99208.88
2023-04-27T13:22:17.426Z,99205.19
2023-04-27T13:24:45.287Z,99218.34
2023-04-27T13:27:13.057Z,99216.38
2023-04-27T13:29:40.709Z,99211.84
2023-04-27T13:32:08.403Z,99207.06
2023-04-27T13:34:36.055Z,99206.59
2023-04-27T13:37:04.383Z,99222.72
2023-04-27T13:39:34.338Z,99219.59
2023-04-27T13:42:02.178Z,99227.81
2023-04-27T13:44:29.784Z,99228.84
2023-04-27T13:46:57.769Z,99227.56
2023-04-27T13:49:26.087Z,99218.31
2023-04-27T13:51:53.608Z,99221.06
2023-04-27T13:54:21.655Z,99235.97
2023-04-27T13:56:49.270Z,99229.94
2023-04-27T13:59:17.334Z,99224.91
2023-04-27T14:01:45.051Z,99219.69
2023-04-27T14:04:12.764Z,99219.00
2023-04-27T14:06:40.646Z,99225.25
2023-04-27T14:09:09.437Z,99233.28
2023-04-27T14:11:48.605Z,99223.88
2023-04-27T14:14:20.954Z,99224.75
2023-04-27T14:16:49.066Z,99226.59
2023-04-27T14:19:17.336Z,99230.94
2023-04-27T14:21:45.521Z,99225.84
2023-04-27T14:24:13.561Z,99219.09
2023-04-27T14:26:44.126Z,99221.66
2023-04-27T14:29:12.179Z,99229.56
2023-04-27T14:31:40.885Z,99225.38
2023-04-27T14:34:09.011Z,99221.97
2023-04-27T14:36:36.755Z,99224.63
2023-04-27T14:39:06.582Z,99222.06
2023-04-27T14:41:35.621Z,99224.72
2023-04-27T14:44:04.746Z,99221.28
2023-04-27T14:46:32.474Z,99223.94
2023-04-27T14:49:00.173Z,99230.06
2023-04-27T14:51:28.970Z,99231.00
2023-04-27T14:53:56.489Z,99229.34
2023-04-27T14:56:24.280Z,99237.13
2023-04-27T14:58:51.824Z,99220.78
2023-04-27T15:01:19.549Z,99229.47
2023-04-27T15:03:47.514Z,99226.06
2023-04-27T15:06:15.501Z,99226.94
2023-04-27T15:08:43.031Z,99221.81
2023-04-27T15:11:10.825Z,99217.53
2023-04-27T15:13:38.322Z,99220.06
2023-04-27T15:16:07.463Z,99232.22
2023-04-27T15:18:35.483Z,99225.28
2023-04-27T15:21:03.878Z,99220.06
2023-04-27T15:23:31.878Z,99221.03
2023-04-27T15:25:59.467Z,99211.50
2023-04-27T15:28:26.922Z,99223.66
2023-04-27T15:30:54.638Z,99212.44
2023-04-27T15:33:22.502Z,99225.44
2023-04-27T15:35:50.644Z,99227.22
2023-04-27T15:38:18.346Z,99220.28
2023-04-27T15:40:45.856Z,99235.03
2023-04-27T15:43:15.067Z,99231.53
2023-04-27T15:45:44.186Z,99232.47
2023-04-27T15:48:12.299Z,99234.25
2023-04-27T15:50:40.268Z,99232.50
2023-04-27T15:53:07.979Z,99241.19
2023-04-27T15:55:35.617Z,99238.63
2023-04-27T15:58:03.564Z,99248.97
2023-04-27T16:00:31.240Z,99243.78
2023-04-27T16:02:59.054Z,99237.69
2023-04-27T16:05:26.986Z,99251.59
2023-04-27T16:07:54.495Z,99246.41
2023-04-27T16:10:22.073Z,99236.94
2023-04-27T16:12:50.423Z,99252.56
2023-04-27T16:15:18.578Z,99252.56
2023-04-27T16:17:46.554Z,99250.88
2023-04-27T16:20:14.327Z,99237.03
2023-04-27T16:22:41.953Z,99255.25
2023-04-27T16:25:12.576Z,99245.75
2023-04-27T16:27:40.166Z,99254.41
2023-04-27T16:30:08.309Z,99256.19
2023-04-27T16:32:37.433Z,99255.34
2023-04-27T16:35:05.625Z,99252.78
2023-04-27T16:37:33.998Z,99264.94
2023-04-27T16:40:06.867Z,99259.75
2023-04-27T16:42:34.998Z,99264.97
2023-04-27T16:45:03.105Z,99271.03
2023-04-27T16:47:34.458Z,99266.75
2023-04-27T16:50:02.549Z,99270.22
2023-04-27T16:52:32.879Z,99263.28
2023-04-27T16:55:00.737Z,99277.19
2023-04-27T16:57:28.815Z,99276.28
2023-04-27T17:00:01.095Z,99276.31
2023-04-27T17:02:29.373Z,99281.50
2023-04-27T17:04:59.654Z,99287.59
2023-04-27T17:07:32.844Z,99292.78
2023-04-27T17:10:00.744Z,99298.91
2023-04-27T17:12:28.365Z,99286.75
2023-04-27T17:14:56.302Z,99288.53
2023-04-27T17:17:23.894Z,99292.84
2023-04-27T17:19:51.609Z,99300.69
2023-04-27T17:22:19.287Z,99292.88
2023-04-27T17:24:46.963Z,99300.69
2023-04-27T17:27:14.695Z,99296.38
2023-04-27T17:29:42.215Z,99305.91
2023-04-27T17:32:09.948Z,99305.03
2023-04-27T17:34:37.721Z,99299.84
2023-04-27T17:37:05.481Z,99302.47
2023-04-27T17:39:33.773Z,99298.97
2023-04-27T17:42:01.691Z,99301.59
2023-04-27T17:44:29.316Z,99305.06
2023-04-27T17:46:57.136Z,99299.88
2023-04-27T17:49:24.687Z,99293.81
2023-04-27T17:51:52.392Z,99297.28
2023-04-27T17:54:19.974Z,99286.03
2023-04-27T17:56:47.859Z,99297.28
2023-04-27T17:59:15.596Z,99294.69
2023-04-27T18:01:43.865Z,99284.28
2023-04-27T18:04:11.501Z,99291.22
2023-04-27T18:06:39.274Z,99294.72
2023-04-27T18:09:06.884Z,99292.97
2023-04-27T18:11:47.676Z,99296.44
2023-04-27T18:14:15.704Z,99295.56
2023-04-27T18:16:44.057Z,99291.22
2023-04-27T18:19:12.236Z,99293.81
2023-04-27T18:21:40.131Z,99295.56
2023-04-27T18:24:08.603Z,99289.47
2023-04-27T18:26:36.929Z,99286.00
2023-04-27T18:29:04.638Z,99292.06
2023-04-27T18:31:32.535Z,99294.69
2023-04-27T18:34:00.155Z,99286.00
2023-04-27T18:36:28.308Z,99286.00
2023-04-27T18:38:58.064Z,99292.94
2023-04-27T18:41:26.101Z,99291.19
2023-04-27T18:43:53.725Z,99290.31
2023-04-27T18:46:21.536Z,99297.25
2023-04-27T18:48:49.186Z,99288.59
2023-04-27T18:51:16.867Z,99292.06
2023-04-27T18:53:44.360Z,99289.44
2023-04-27T18:56:12.384Z,99282.53
2023-04-27T18:58:39.918Z,99287.72
2023-04-27T19:01:07.485Z,99286.84
2023-04-27T19:03:35.375Z,99280.78
2023-04-27T19:06:03.159Z,99275.56
2023-04-27T19:08:30.898Z,99277.34
2023-04-27T19:10:58.638Z,99273.84
2023-04-27T19:13:27.386Z,99282.50
2023-04-27T19:15:55.195Z,99280.78
2023-04-27T19:18:22.946Z,99278.16
2023-04-27T19:20:51.731Z,99279.03
2023-04-27T19:23:19.509Z,99273.84
2023-04-27T19:25:48.443Z,99268.63
2023-04-27T19:28:18.858Z,99278.16
2023-04-27T19:30:47.643Z,99273.84
2023-04-27T19:33:19.645Z,99272.06
2023-04-27T19:35:47.905Z,99268.63
2023-04-27T19:38:15.441Z,99277.25
2023-04-27T19:40:43.087Z,99272.09
2023-04-27T19:43:12.005Z,99267.75
2023-04-27T19:45:41.970Z,99265.13
2023-04-27T19:48:09.639Z,99263.41
2023-04-27T19:50:41.300Z,99272.94
2023-04-27T19:53:09.106Z,99265.97
2023-04-27T19:55:37.210Z,99265.97
2023-04-27T19:58:04.872Z,99274.63
2023-04-27T20:00:32.670Z,99275.50
2023-04-27T20:03:00.509Z,99268.53
2023-04-27T20:05:28.589Z,99278.06
2023-04-27T20:07:56.321Z,99281.50
2023-04-27T20:10:23.856Z,99278.88
2023-04-27T20:12:56.887Z,99274.50
2023-04-27T20:15:25.800Z,99274.53
2023-04-27T20:17:53.874Z,99288.34
2023-04-27T20:20:21.577Z,99274.50
2023-04-27T20:22:49.683Z,99276.22
2023-04-27T20:25:17.209Z,99274.44
2023-04-27T20:27:44.854Z,99272.72
2023-04-27T20:30:12.447Z,99277.88
2023-04-27T20:32:40.507Z,99275.28
2023-04-27T20:35:11.533Z,99283.91
2023-04-27T20:37:42.051Z,99279.56
2023-04-27T20:40:14.563Z,99269.19
2023-04-27T20:42:42.655Z,99273.47
2023-04-27T20:45:11.643Z,99275.19
2023-04-27T20:47:39.299Z,99261.38
2023-04-27T20:50:08.232Z,99264.78
2023-04-27T20:52:36.005Z,99272.56
2023-04-27T20:55:04.620Z,99276.88
2023-04-27T20:57:32.462Z,99271.66
2023-04-27T21:00:00.263Z,99277.69
2023-04-27T21:02:28.017Z,99268.16
2023-04-27T21:04:55.783Z,99262.91
2023-04-27T21:07:23.487Z,99272.41
2023-04-27T21:09:52.453Z,99270.69
2023-04-27T21:12:20.070Z,99268.06
2023-04-27T21:14:48.137Z,99274.97
2023-04-27T21:17:15.724Z,99271.47
2023-04-27T21:19:43.517Z,99271.44
2023-04-27T21:22:11.269Z,99268.84
2023-04-27T21:24:38.786Z,99272.25
2023-04-27T21:27:06.597Z,99260.97
2023-04-27T21:29:37.357Z,99265.25
2023-04-27T21:32:05.120Z,99253.97
2023-04-27T21:34:32.750Z,99260.88
2023-04-27T21:37:00.277Z,99253.97
2023-04-27T21:39:27.980Z,99255.63
2023-04-27T21:41:55.550Z,99254.78
2023-04-27T21:44:23.178Z,99253.00
2023-04-27T21:46:51.543Z,99252.97
2023-04-27T21:49:19.340Z,99252.06
2023-04-27T21:51:46.966Z,99257.22
2023-04-27T21:54:14.670Z,99261.53
2023-04-27T21:56:42.702Z,99258.09
2023-04-27T21:59:10.296Z,99251.13
2023-04-27T22:01:38.000Z,99249.41
2023-04-27T22:04:06.432Z,99249.38
2023-04-27T22:06:34.153Z,99250.25
2023-04-27T22:09:02.028Z,99257.16
2023-04-27T22:11:29.760Z,99257.09
2023-04-27T22:13:57.441Z,99266.59
2023-04-27T22:16:25.051Z,99257.88
2023-04-27T22:18:53.925Z,99264.78
2023-04-27T22:21:21.666Z,99263.03
2023-04-27T22:23:49.303Z,99258.72
2023-04-27T22:26:17.293Z,99260.41
2023-04-27T22:28:44.839Z,99263.84
2023-04-27T22:31:12.536Z,99262.19
2023-04-27T22:33:40.191Z,99268.22
2023-04-27T22:36:08.148Z,99264.72
2023-04-27T22:38:35.865Z,99261.22
2023-04-27T22:41:03.399Z,99268.97
2023-04-27T22:43:31.007Z,99256.84
2023-04-27T22:45:58.498Z,99249.00
2023-04-27T22:48:26.107Z,99255.91
2023-04-27T22:50:53.699Z,99266.25
2023-04-27T22:53:21.677Z,99260.16
2023-04-27T22:55:49.299Z,99251.59
2023-04-27T22:58:16.850Z,99250.66
2023-04-27T23:00:44.453Z,99251.50
2023-04-27T23:03:12.287Z,99258.31
2023-04-27T23:05:40.220Z,99265.13
2023-04-27T23:08:07.724Z,99256.50
2023-04-27T23:10:38.798Z,99265.06
2023-04-27T23:13:07.365Z,99257.25
2023-04-27T23:15:35.012Z,99262.44
2023-04-27T23:18:02.678Z,99255.53
2023-04-27T23:20:30.372Z,99271.06
2023-04-27T23:22:58.102Z,99271.06
2023-04-27T23:25:25.670Z,99262.44
2023-04-27T23:27:53.445Z,99251.25
2023-04-27T23:30:22.090Z,99254.66
2023-04-27T23:32:50.105Z,99255.53
2023-04-27T23:35:17.852Z,99251.06
2023-04-27T23:37:45.436Z,99254.47
2023-04-27T23:40:13.249Z,99255.25
2023-04-27T23:42:40.826Z,99259.63
2023-04-27T23:45:08.597Z,99251.78
2023-04-27T23:47:37.142Z,99268.16
2023-04-27T23:50:05.324Z,99262.91
2023-04-27T23:52:34.580Z,99266.34
2023-04-27T23:55:02.274Z,99272.34
2023-04-27T23:57:33.574Z,99261.03
